sensor_id;sensor_type;location;lat;lon;timestamp;P1;durP1;ratioP1;P2;durP2;ratioP2
80926;SDS011;70385;44.538;18.532;2023-10-08T00:02:23;36.67;;;19.55;;
80926;SDS011;70385;44.538;18.532;2023-10-08T00:04:51;48.85;;;20.77;;
80926;SDS011;70385;44.538;18.532;2023-10-08T00:07:18;41.17;;;21.73;;
80926;SDS011;70385;44.538;18.532;2023-10-08T00:09:47;38.05;;;20.38;;
80926;SDS011;70385;44.538;18.532;2023-10-08T00:12:16;38.83;;;21.35;;
80926;SDS011;70385;44.538;18.532;2023-10-08T00:14:46;38.70;;;21.65;;
80926;SDS011;70385;44.538;18.532;2023-10-08T00:17:18;38.95;;;20.73;;
80926;SDS011;70385;44.538;18.532;2023-10-08T00:19:45;38.42;;;20.80;;
80926;SDS011;70385;44.538;18.532;2023-10-08T00:22:12;37.25;;;20.05;;
80926;SDS011;70385;44.538;18.532;2023-10-08T00:24:39;41.30;;;19.85;;
80926;SDS011;70385;44.538;18.532;2023-10-08T00:27:09;34.78;;;19.95;;
80926;SDS011;70385;44.538;18.532;2023-10-08T00:29:40;36.95;;;20.42;;
80926;SDS011;70385;44.538;18.532;2023-10-08T00:32:08;39.22;;;21.05;;
80926;SDS011;70385;44.538;18.532;2023-10-08T00:34:41;43.45;;;21.58;;
80926;SDS011;70385;44.538;18.532;2023-10-08T00:37:08;35.00;;;19.90;;
80926;SDS011;70385;44.538;18.532;2023-10-08T00:39:40;42.35;;;22.17;;
80926;SDS011;70385;44.538;18.532;2023-10-08T00:42:07;42.55;;;22.45;;
80926;SDS011;70385;44.538;18.532;2023-10-08T00:44:34;39.78;;;21.25;;
80926;SDS011;70385;44.538;18.532;2023-10-08T00:47:21;37.40;;;20.52;;
80926;SDS011;70385;44.538;18.532;2023-10-08T00:49:51;40.03;;;22.42;;
80926;SDS011;70385;44.538;18.532;2023-10-08T00:52:39;35.65;;;19.60;;
80926;SDS011;70385;44.538;18.532;2023-10-08T00:55:06;34.00;;;19.40;;
80926;SDS011;70385;44.538;18.532;2023-10-08T00:57:36;36.60;;;18.38;;
80926;SDS011;70385;44.538;18.532;2023-10-08T01:00:05;31.77;;;18.30;;
80926;SDS011;70385;44.538;18.532;2023-10-08T01:02:37;32.72;;;18.45;;
80926;SDS011;70385;44.538;18.532;2023-10-08T01:05:15;35.03;;;18.83;;
80926;SDS011;70385;44.538;18.532;2023-10-08T01:07:49;32.65;;;19.15;;
80926;SDS011;70385;44.538;18.532;2023-10-08T01:10:16;37.78;;;18.20;;
80926;SDS011;70385;44.538;18.532;2023-10-08T01:12:46;37.97;;;17.88;;
80926;SDS011;70385;44.538;18.532;2023-10-08T01:15:28;32.83;;;18.20;;
80926;SDS011;70385;44.538;18.532;2023-10-08T01:17:56;35.58;;;18.48;;
80926;SDS011;70385;44.538;18.532;2023-10-08T01:20:26;30.83;;;17.63;;
80926;SDS011;70385;44.538;18.532;2023-10-08T01:22:58;29.70;;;17.75;;
80926;SDS011;70385;44.538;18.532;2023-10-08T01:25:36;35.83;;;17.10;;
80926;SDS011;70385;44.538;18.532;2023-10-08T01:28:04;35.20;;;17.23;;
80926;SDS011;70385;44.538;18.532;2023-10-08T01:30:49;31.13;;;18.13;;
80926;SDS011;70385;44.538;18.532;2023-10-08T01:33:18;32.90;;;17.92;;
80926;SDS011;70385;44.538;18.532;2023-10-08T01:35:46;37.03;;;16.90;;
80926;SDS011;70385;44.538;18.532;2023-10-08T01:38:14;37.78;;;18.13;;
80926;SDS011;70385;44.538;18.532;2023-10-08T01:40:41;34.13;;;17.33;;
80926;SDS011;70385;44.538;18.532;2023-10-08T01:43:08;33.50;;;18.35;;
80926;SDS011;70385;44.538;18.532;2023-10-08T01:45:39;35.25;;;16.90;;
80926;SDS011;70385;44.538;18.532;2023-10-08T01:48:06;34.97;;;17.08;;
80926;SDS011;70385;44.538;18.532;2023-10-08T01:50:38;35.85;;;17.42;;
80926;SDS011;70385;44.538;18.532;2023-10-08T01:53:05;32.45;;;16.55;;
80926;SDS011;70385;44.538;18.532;2023-10-08T01:55:35;34.20;;;17.35;;
80926;SDS011;70385;44.538;18.532;2023-10-08T01:58:12;43.67;;;18.55;;
80926;SDS011;70385;44.538;18.532;2023-10-08T02:00:42;38.33;;;17.83;;
80926;SDS011;70385;44.538;18.532;2023-10-08T02:03:15;30.63;;;17.27;;
80926;SDS011;70385;44.538;18.532;2023-10-08T02:05:43;37.25;;;19.20;;
80926;SDS011;70385;44.538;18.532;2023-10-08T02:08:10;30.30;;;17.50;;
80926;SDS011;70385;44.538;18.532;2023-10-08T02:10:38;28.60;;;16.80;;
80926;SDS011;70385;44.538;18.532;2023-10-08T02:13:06;33.50;;;18.08;;
80926;SDS011;70385;44.538;18.532;2023-10-08T02:15:34;28.92;;;16.42;;
80926;SDS011;70385;44.538;18.532;2023-10-08T02:18:02;32.85;;;17.48;;
80926;SDS011;70385;44.538;18.532;2023-10-08T02:20:29;31.75;;;18.40;;
80926;SDS011;70385;44.538;18.532;2023-10-08T02:22:55;29.65;;;16.20;;
80926;SDS011;70385;44.538;18.532;2023-10-08T02:25:21;36.05;;;16.88;;
80926;SDS011;70385;44.538;18.532;2023-10-08T02:27:48;34.58;;;17.48;;
80926;SDS011;70385;44.538;18.532;2023-10-08T02:30:14;31.70;;;17.70;;
80926;SDS011;70385;44.538;18.532;2023-10-08T02:32:40;32.13;;;17.52;;
80926;SDS011;70385;44.538;18.532;2023-10-08T02:35:12;30.60;;;16.55;;
80926;SDS011;70385;44.538;18.532;2023-10-08T02:37:38;33.75;;;16.67;;
80926;SDS011;70385;44.538;18.532;2023-10-08T02:40:09;32.88;;;16.55;;
80926;SDS011;70385;44.538;18.532;2023-10-08T02:42:52;27.20;;;16.43;;
80926;SDS011;70385;44.538;18.532;2023-10-08T02:45:27;27.83;;;16.65;;
80926;SDS011;70385;44.538;18.532;2023-10-08T02:47:54;26.50;;;14.60;;
80926;SDS011;70385;44.538;18.532;2023-10-08T02:50:21;27.30;;;14.93;;
80926;SDS011;70385;44.538;18.532;2023-10-08T02:52:52;28.55;;;16.30;;
80926;SDS011;70385;44.538;18.532;2023-10-08T02:55:18;31.08;;;15.65;;
80926;SDS011;70385;44.538;18.532;2023-10-08T02:57:54;27.40;;;14.60;;
80926;SDS011;70385;44.538;18.532;2023-10-08T03:00:21;27.05;;;13.95;;
80926;SDS011;70385;44.538;18.532;2023-10-08T03:02:58;21.92;;;12.95;;
80926;SDS011;70385;44.538;18.532;2023-10-08T03:05:27;24.70;;;14.07;;
80926;SDS011;70385;44.538;18.532;2023-10-08T03:08:02;22.73;;;12.35;;
80926;SDS011;70385;44.538;18.532;2023-10-08T03:10:37;22.20;;;12.77;;
80926;SDS011;70385;44.538;18.532;2023-10-08T03:13:04;23.45;;;13.23;;
80926;SDS011;70385;44.538;18.532;2023-10-08T03:15:31;28.02;;;14.35;;
80926;SDS011;70385;44.538;18.532;2023-10-08T03:18:13;28.42;;;13.40;;
80926;SDS011;70385;44.538;18.532;2023-10-08T03:20:42;30.60;;;16.40;;
80926;SDS011;70385;44.538;18.532;2023-10-08T03:23:14;28.85;;;16.20;;
80926;SDS011;70385;44.538;18.532;2023-10-08T03:26:01;26.27;;;15.45;;
80926;SDS011;70385;44.538;18.532;2023-10-08T03:28:54;29.35;;;16.42;;
80926;SDS011;70385;44.538;18.532;2023-10-08T03:31:24;29.50;;;15.88;;
80926;SDS011;70385;44.538;18.532;2023-10-08T03:34:19;31.63;;;15.90;;
80926;SDS011;70385;44.538;18.532;2023-10-08T03:36:45;32.47;;;16.45;;
80926;SDS011;70385;44.538;18.532;2023-10-08T03:39:13;30.58;;;15.98;;
80926;SDS011;70385;44.538;18.532;2023-10-08T03:41:39;31.25;;;17.02;;
80926;SDS011;70385;44.538;18.532;2023-10-08T03:44:07;32.33;;;17.35;;
80926;SDS011;70385;44.538;18.532;2023-10-08T03:46:42;32.88;;;17.58;;
80926;SDS011;70385;44.538;18.532;2023-10-08T03:49:08;31.55;;;17.25;;
80926;SDS011;70385;44.538;18.532;2023-10-08T03:51:51;34.70;;;17.73;;
80926;SDS011;70385;44.538;18.532;2023-10-08T03:54:18;35.90;;;16.92;;
80926;SDS011;70385;44.538;18.532;2023-10-08T03:56:46;30.92;;;19.45;;
80926;SDS011;70385;44.538;18.532;2023-10-08T03:59:14;31.95;;;18.95;;
80926;SDS011;70385;44.538;18.532;2023-10-08T04:02:02;35.17;;;18.30;;
80926;SDS011;70385;44.538;18.532;2023-10-08T04:04:40;36.25;;;18.00;;
80926;SDS011;70385;44.538;18.532;2023-10-08T04:07:23;32.75;;;16.88;;
80926;SDS011;70385;44.538;18.532;2023-10-08T04:09:50;37.13;;;16.98;;
80926;SDS011;70385;44.538;18.532;2023-10-08T04:12:31;29.10;;;17.38;;
80926;SDS011;70385;44.538;18.532;2023-10-08T04:15:03;34.00;;;17.27;;
80926;SDS011;70385;44.538;18.532;2023-10-08T04:17:33;32.83;;;17.17;;
80926;SDS011;70385;44.538;18.532;2023-10-08T04:20:12;35.65;;;16.23;;
80926;SDS011;70385;44.538;18.532;2023-10-08T04:22:58;30.55;;;15.73;;
80926;SDS011;70385;44.538;18.532;2023-10-08T04:25:28;31.80;;;17.08;;
80926;SDS011;70385;44.538;18.532;2023-10-08T04:27:55;26.73;;;15.77;;
80926;SDS011;70385;44.538;18.532;2023-10-08T04:30:32;27.02;;;15.68;;
80926;SDS011;70385;44.538;18.532;2023-10-08T04:33:02;29.13;;;15.85;;
80926;SDS011;70385;44.538;18.532;2023-10-08T04:35:36;30.48;;;15.65;;
80926;SDS011;70385;44.538;18.532;2023-10-08T04:38:17;27.70;;;16.00;;
80926;SDS011;70385;44.538;18.532;2023-10-08T04:40:49;24.00;;;14.32;;
80926;SDS011;70385;44.538;18.532;2023-10-08T04:43:21;30.60;;;15.70;;
80926;SDS011;70385;44.538;18.532;2023-10-08T04:45:51;28.10;;;15.25;;
80926;SDS011;70385;44.538;18.532;2023-10-08T04:48:17;28.23;;;14.95;;
80926;SDS011;70385;44.538;18.532;2023-10-08T04:50:49;28.85;;;15.50;;
80926;SDS011;70385;44.538;18.532;2023-10-08T04:53:27;29.00;;;15.23;;
80926;SDS011;70385;44.538;18.532;2023-10-08T04:55:58;29.55;;;16.10;;
80926;SDS011;70385;44.538;18.532;2023-10-08T04:58:34;29.38;;;15.05;;
80926;SDS011;70385;44.538;18.532;2023-10-08T05:01:03;28.73;;;15.40;;
80926;SDS011;70385;44.538;18.532;2023-10-08T05:03:48;26.23;;;14.70;;
80926;SDS011;70385;44.538;18.532;2023-10-08T05:06:31;31.17;;;15.90;;
80926;SDS011;70385;44.538;18.532;2023-10-08T05:09:05;29.25;;;15.23;;
80926;SDS011;70385;44.538;18.532;2023-10-08T05:11:44;27.80;;;15.15;;
80926;SDS011;70385;44.538;18.532;2023-10-08T05:14:11;28.90;;;14.82;;
80926;SDS011;70385;44.538;18.532;2023-10-08T05:16:57;26.10;;;15.48;;
80926;SDS011;70385;44.538;18.532;2023-10-08T05:19:36;28.58;;;15.38;;
80926;SDS011;70385;44.538;18.532;2023-10-08T05:22:07;29.98;;;15.50;;
80926;SDS011;70385;44.538;18.532;2023-10-08T05:24:49;26.90;;;14.52;;
80926;SDS011;70385;44.538;18.532;2023-10-08T05:27:52;29.15;;;14.52;;
80926;SDS011;70385;44.538;18.532;2023-10-08T05:30:23;29.95;;;16.35;;
80926;SDS011;70385;44.538;18.532;2023-10-08T05:33:03;33.53;;;16.20;;
80926;SDS011;70385;44.538;18.532;2023-10-08T05:36:00;28.40;;;15.70;;
80926;SDS011;70385;44.538;18.532;2023-10-08T05:38:36;29.05;;;16.85;;
80926;SDS011;70385;44.538;18.532;2023-10-08T05:41:03;29.38;;;16.05;;
80926;SDS011;70385;44.538;18.532;2023-10-08T05:43:32;27.25;;;14.57;;
80926;SDS011;70385;44.538;18.532;2023-10-08T05:46:03;30.08;;;15.20;;
80926;SDS011;70385;44.538;18.532;2023-10-08T05:48:51;26.23;;;14.57;;
80926;SDS011;70385;44.538;18.532;2023-10-08T05:54:13;25.90;;;14.15;;
80926;SDS011;70385;44.538;18.532;2023-10-08T05:57:08;25.45;;;14.18;;
80926;SDS011;70385;44.538;18.532;2023-10-08T06:02:29;30.95;;;15.82;;
80926;SDS011;70385;44.538;18.532;2023-10-08T06:04:59;26.95;;;14.52;;
80926;SDS011;70385;44.538;18.532;2023-10-08T06:07:38;31.50;;;14.55;;
80926;SDS011;70385;44.538;18.532;2023-10-08T06:10:22;30.63;;;15.70;;
80926;SDS011;70385;44.538;18.532;2023-10-08T06:15:42;27.75;;;14.80;;
80926;SDS011;70385;44.538;18.532;2023-10-08T06:20:56;26.55;;;14.65;;
80926;SDS011;70385;44.538;18.532;2023-10-08T06:23:28;30.42;;;13.48;;
80926;SDS011;70385;44.538;18.532;2023-10-08T06:25:57;28.38;;;14.60;;
80926;SDS011;70385;44.538;18.532;2023-10-08T06:28:24;27.70;;;14.88;;
80926;SDS011;70385;44.538;18.532;2023-10-08T06:30:55;31.85;;;16.33;;
80926;SDS011;70385;44.538;18.532;2023-10-08T06:33:25;33.67;;;16.38;;
80926;SDS011;70385;44.538;18.532;2023-10-08T06:35:56;34.92;;;17.02;;
80926;SDS011;70385;44.538;18.532;2023-10-08T06:38:53;31.52;;;16.80;;
80926;SDS011;70385;44.538;18.532;2023-10-08T06:41:19;30.55;;;15.82;;
80926;SDS011;70385;44.538;18.532;2023-10-08T06:43:54;32.33;;;15.65;;
80926;SDS011;70385;44.538;18.532;2023-10-08T06:46:40;27.52;;;14.85;;
80926;SDS011;70385;44.538;18.532;2023-10-08T06:49:09;23.70;;;13.95;;
80926;SDS011;70385;44.538;18.532;2023-10-08T06:51:39;27.20;;;15.55;;
80926;SDS011;70385;44.538;18.532;2023-10-08T06:54:07;22.48;;;14.15;;
80926;SDS011;70385;44.538;18.532;2023-10-08T06:56:36;30.02;;;15.68;;
80926;SDS011;70385;44.538;18.532;2023-10-08T06:59:02;24.92;;;12.63;;
80926;SDS011;70385;44.538;18.532;2023-10-08T07:01:29;20.63;;;11.77;;
80926;SDS011;70385;44.538;18.532;2023-10-08T07:04:06;19.73;;;11.60;;
80926;SDS011;70385;44.538;18.532;2023-10-08T07:06:38;20.05;;;11.65;;
80926;SDS011;70385;44.538;18.532;2023-10-08T07:09:05;23.38;;;12.32;;
80926;SDS011;70385;44.538;18.532;2023-10-08T07:11:32;22.92;;;12.52;;
80926;SDS011;70385;44.538;18.532;2023-10-08T07:14:05;27.08;;;14.77;;
80926;SDS011;70385;44.538;18.532;2023-10-08T07:16:31;32.58;;;15.45;;
80926;SDS011;70385;44.538;18.532;2023-10-08T07:18:59;33.78;;;16.33;;
80926;SDS011;70385;44.538;18.532;2023-10-08T07:21:30;29.90;;;16.38;;
80926;SDS011;70385;44.538;18.532;2023-10-08T07:24:13;28.55;;;16.27;;
80926;SDS011;70385;44.538;18.532;2023-10-08T07:26:47;30.50;;;17.08;;
80926;SDS011;70385;44.538;18.532;2023-10-08T07:29:15;30.95;;;16.65;;
80926;SDS011;70385;44.538;18.532;2023-10-08T07:31:46;35.40;;;18.05;;
80926;SDS011;70385;44.538;18.532;2023-10-08T07:34:19;32.15;;;17.13;;
80926;SDS011;70385;44.538;18.532;2023-10-08T07:36:57;27.88;;;15.70;;
80926;SDS011;70385;44.538;18.532;2023-10-08T07:39:23;32.28;;;16.55;;
80926;SDS011;70385;44.538;18.532;2023-10-08T07:42:15;32.58;;;16.35;;
80926;SDS011;70385;44.538;18.532;2023-10-08T07:44:40;30.95;;;16.38;;
80926;SDS011;70385;44.538;18.532;2023-10-08T07:47:06;27.73;;;16.23;;
80926;SDS011;70385;44.538;18.532;2023-10-08T07:49:38;30.00;;;17.02;;
80926;SDS011;70385;44.538;18.532;2023-10-08T07:52:04;34.47;;;17.05;;
80926;SDS011;70385;44.538;18.532;2023-10-08T07:54:31;29.98;;;16.10;;
80926;SDS011;70385;44.538;18.532;2023-10-08T07:57:00;24.70;;;14.02;;
80926;SDS011;70385;44.538;18.532;2023-10-08T07:59:40;31.05;;;14.52;;
80926;SDS011;70385;44.538;18.532;2023-10-08T08:02:07;28.00;;;14.80;;
80926;SDS011;70385;44.538;18.532;2023-10-08T08:04:40;27.55;;;13.93;;
80926;SDS011;70385;44.538;18.532;2023-10-08T08:07:11;23.45;;;13.38;;
80926;SDS011;70385;44.538;18.532;2023-10-08T08:09:43;23.85;;;13.10;;
80926;SDS011;70385;44.538;18.532;2023-10-08T08:12:22;26.73;;;13.10;;
80926;SDS011;70385;44.538;18.532;2023-10-08T08:14:50;23.85;;;12.35;;
80926;SDS011;70385;44.538;18.532;2023-10-08T08:17:17;26.23;;;12.85;;
80926;SDS011;70385;44.538;18.532;2023-10-08T08:19:44;23.15;;;11.85;;
80926;SDS011;70385;44.538;18.532;2023-10-08T08:22:18;22.20;;;12.57;;
80926;SDS011;70385;44.538;18.532;2023-10-08T08:27:27;24.90;;;12.10;;
80926;SDS011;70385;44.538;18.532;2023-10-08T08:30:03;23.30;;;13.38;;
80926;SDS011;70385;44.538;18.532;2023-10-08T08:32:51;27.58;;;15.32;;
80926;SDS011;70385;44.538;18.532;2023-10-08T08:35:17;32.30;;;15.30;;
80926;SDS011;70385;44.538;18.532;2023-10-08T08:37:45;28.85;;;13.82;;
80926;SDS011;70385;44.538;18.532;2023-10-08T08:40:17;29.08;;;14.32;;
80926;SDS011;70385;44.538;18.532;2023-10-08T08:42:44;27.48;;;15.73;;
80926;SDS011;70385;44.538;18.532;2023-10-08T08:45:20;31.25;;;14.38;;
80926;SDS011;70385;44.538;18.532;2023-10-08T08:47:48;23.55;;;14.05;;
80926;SDS011;70385;44.538;18.532;2023-10-08T08:50:14;26.13;;;13.75;;
80926;SDS011;70385;44.538;18.532;2023-10-08T08:52:40;26.42;;;13.23;;
80926;SDS011;70385;44.538;18.532;2023-10-08T08:55:06;23.75;;;13.07;;
80926;SDS011;70385;44.538;18.532;2023-10-08T08:57:40;23.48;;;13.10;;
80926;SDS011;70385;44.538;18.532;2023-10-08T09:00:10;24.08;;;12.48;;
80926;SDS011;70385;44.538;18.532;2023-10-08T09:02:38;23.30;;;11.60;;
80926;SDS011;70385;44.538;18.532;2023-10-08T09:05:04;25.95;;;12.52;;
80926;SDS011;70385;44.538;18.532;2023-10-08T09:07:57;21.33;;;11.70;;
80926;SDS011;70385;44.538;18.532;2023-10-08T09:10:31;23.40;;;12.57;;
80926;SDS011;70385;44.538;18.532;2023-10-08T09:13:03;24.40;;;11.88;;
80926;SDS011;70385;44.538;18.532;2023-10-08T09:15:30;27.38;;;12.75;;
80926;SDS011;70385;44.538;18.532;2023-10-08T09:17:57;23.88;;;11.30;;
80926;SDS011;70385;44.538;18.532;2023-10-08T09:20:30;22.00;;;12.20;;
80926;SDS011;70385;44.538;18.532;2023-10-08T09:23:12;23.40;;;11.70;;
80926;SDS011;70385;44.538;18.532;2023-10-08T09:25:40;18.40;;;11.23;;
80926;SDS011;70385;44.538;18.532;2023-10-08T09:28:06;24.55;;;11.73;;
80926;SDS011;70385;44.538;18.532;2023-10-08T09:30:36;23.30;;;12.50;;
80926;SDS011;70385;44.538;18.532;2023-10-08T09:33:06;21.50;;;11.90;;
80926;SDS011;70385;44.538;18.532;2023-10-08T09:35:33;22.00;;;11.63;;
80926;SDS011;70385;44.538;18.532;2023-10-08T09:38:03;23.42;;;10.90;;
80926;SDS011;70385;44.538;18.532;2023-10-08T09:40:30;19.35;;;11.00;;
80926;SDS011;70385;44.538;18.532;2023-10-08T09:42:56;22.20;;;10.82;;
80926;SDS011;70385;44.538;18.532;2023-10-08T09:45:22;21.48;;;11.20;;
80926;SDS011;70385;44.538;18.532;2023-10-08T09:47:54;20.20;;;10.45;;
80926;SDS011;70385;44.538;18.532;2023-10-08T09:50:22;19.33;;;8.93;;
80926;SDS011;70385;44.538;18.532;2023-10-08T09:52:56;22.33;;;9.23;;
80926;SDS011;70385;44.538;18.532;2023-10-08T09:55:33;22.88;;;9.52;;
80926;SDS011;70385;44.538;18.532;2023-10-08T09:57:59;17.85;;;9.27;;
80926;SDS011;70385;44.538;18.532;2023-10-08T10:00:25;17.55;;;9.25;;
80926;SDS011;70385;44.538;18.532;2023-10-08T10:03:00;23.60;;;10.02;;
80926;SDS011;70385;44.538;18.532;2023-10-08T10:05:31;20.52;;;10.10;;
80926;SDS011;70385;44.538;18.532;2023-10-08T10:07:57;27.38;;;10.73;;
80926;SDS011;70385;44.538;18.532;2023-10-08T10:10:27;24.17;;;10.65;;
80926;SDS011;70385;44.538;18.532;2023-10-08T10:13:00;17.55;;;10.25;;
80926;SDS011;70385;44.538;18.532;2023-10-08T10:15:28;31.20;;;12.13;;
80926;SDS011;70385;44.538;18.532;2023-10-08T10:18:09;21.05;;;11.00;;
80926;SDS011;70385;44.538;18.532;2023-10-08T10:20:40;25.15;;;12.10;;
80926;SDS011;70385;44.538;18.532;2023-10-08T10:26:24;23.15;;;11.65;;
80926;SDS011;70385;44.538;18.532;2023-10-08T10:31:50;32.95;;;14.85;;
80926;SDS011;70385;44.538;18.532;2023-10-08T10:34:23;31.38;;;13.05;;
80926;SDS011;70385;44.538;18.532;2023-10-08T10:36:53;25.98;;;12.20;;
80926;SDS011;70385;44.538;18.532;2023-10-08T10:39:34;26.65;;;11.73;;
80926;SDS011;70385;44.538;18.532;2023-10-08T10:42:05;20.45;;;11.75;;
80926;SDS011;70385;44.538;18.532;2023-10-08T10:44:44;24.45;;;10.48;;
80926;SDS011;70385;44.538;18.532;2023-10-08T10:47:09;18.17;;;10.32;;
80926;SDS011;70385;44.538;18.532;2023-10-08T10:49:42;19.30;;;10.63;;
80926;SDS011;70385;44.538;18.532;2023-10-08T10:52:23;17.77;;;9.88;;
80926;SDS011;70385;44.538;18.532;2023-10-08T10:55:03;19.70;;;9.35;;
80926;SDS011;70385;44.538;18.532;2023-10-08T10:57:40;21.83;;;9.90;;
80926;SDS011;70385;44.538;18.532;2023-10-08T11:00:19;14.68;;;8.57;;
80926;SDS011;70385;44.538;18.532;2023-10-08T11:02:57;21.10;;;9.80;;
80926;SDS011;70385;44.538;18.532;2023-10-08T11:05:41;25.35;;;11.02;;
80926;SDS011;70385;44.538;18.532;2023-10-08T11:08:13;24.08;;;10.20;;
80926;SDS011;70385;44.538;18.532;2023-10-08T11:10:43;22.60;;;9.70;;
80926;SDS011;70385;44.538;18.532;2023-10-08T11:13:15;20.92;;;9.63;;
80926;SDS011;70385;44.538;18.532;2023-10-08T11:15:45;23.42;;;9.52;;
80926;SDS011;70385;44.538;18.532;2023-10-08T11:18:20;26.25;;;10.35;;
80926;SDS011;70385;44.538;18.532;2023-10-08T11:20:47;20.70;;;9.35;;
80926;SDS011;70385;44.538;18.532;2023-10-08T11:23:36;24.45;;;8.18;;
80926;SDS011;70385;44.538;18.532;2023-10-08T11:26:06;25.00;;;9.18;;
80926;SDS011;70385;44.538;18.532;2023-10-08T11:28:33;20.08;;;9.55;;
80926;SDS011;70385;44.538;18.532;2023-10-08T11:31:00;22.55;;;9.25;;
80926;SDS011;70385;44.538;18.532;2023-10-08T11:33:39;31.77;;;10.20;;
80926;SDS011;70385;44.538;18.532;2023-10-08T11:36:07;21.20;;;9.25;;
80926;SDS011;70385;44.538;18.532;2023-10-08T11:41:26;23.88;;;9.40;;
80926;SDS011;70385;44.538;18.532;2023-10-08T11:43:56;18.55;;;9.15;;
80926;SDS011;70385;44.538;18.532;2023-10-08T11:46:23;27.55;;;9.57;;
80926;SDS011;70385;44.538;18.532;2023-10-08T11:49:09;22.45;;;10.50;;
80926;SDS011;70385;44.538;18.532;2023-10-08T11:51:43;39.85;;;14.73;;
80926;SDS011;70385;44.538;18.532;2023-10-08T11:54:52;33.95;;;12.98;;
80926;SDS011;70385;44.538;18.532;2023-10-08T11:57:18;44.95;;;18.40;;
80926;SDS011;70385;44.538;18.532;2023-10-08T11:59:47;41.35;;;14.98;;
80926;SDS011;70385;44.538;18.532;2023-10-08T12:02:13;37.17;;;16.83;;
80926;SDS011;70385;44.538;18.532;2023-10-08T12:04:42;48.10;;;16.50;;
80926;SDS011;70385;44.538;18.532;2023-10-08T12:07:10;49.05;;;18.27;;
80926;SDS011;70385;44.538;18.532;2023-10-08T12:09:36;50.03;;;20.70;;
80926;SDS011;70385;44.538;18.532;2023-10-08T12:12:05;46.05;;;18.58;;
80926;SDS011;70385;44.538;18.532;2023-10-08T12:14:40;47.17;;;17.63;;
80926;SDS011;70385;44.538;18.532;2023-10-08T12:17:09;56.72;;;18.60;;
80926;SDS011;70385;44.538;18.532;2023-10-08T12:19:42;39.65;;;16.15;;
80926;SDS011;70385;44.538;18.532;2023-10-08T12:22:08;39.05;;;13.68;;
80926;SDS011;70385;44.538;18.532;2023-10-08T12:24:34;43.90;;;23.80;;
80926;SDS011;70385;44.538;18.532;2023-10-08T12:27:03;80.18;;;49.00;;
80926;SDS011;70385;44.538;18.532;2023-10-08T12:29:29;38.47;;;18.40;;
80926;SDS011;70385;44.538;18.532;2023-10-08T12:31:58;44.65;;;14.52;;
80926;SDS011;70385;44.538;18.532;2023-10-08T12:34:25;37.22;;;12.18;;
80926;SDS011;70385;44.538;18.532;2023-10-08T12:36:54;34.70;;;11.07;;
80926;SDS011;70385;44.538;18.532;2023-10-08T12:39:20;27.85;;;12.20;;
80926;SDS011;70385;44.538;18.532;2023-10-08T12:49:36;25.92;;;12.80;;
80926;SDS011;70385;44.538;18.532;2023-10-08T12:52:02;37.72;;;13.05;;
80926;SDS011;70385;44.538;18.532;2023-10-08T12:54:27;29.40;;;12.75;;
80926;SDS011;70385;44.538;18.532;2023-10-08T12:56:58;34.05;;;12.35;;
80926;SDS011;70385;44.538;18.532;2023-10-08T12:59:24;36.30;;;13.25;;
80926;SDS011;70385;44.538;18.532;2023-10-08T13:01:51;27.13;;;13.82;;
80926;SDS011;70385;44.538;18.532;2023-10-08T13:04:19;30.85;;;14.45;;
80926;SDS011;70385;44.538;18.532;2023-10-08T13:06:58;29.83;;;12.52;;
80926;SDS011;70385;44.538;18.532;2023-10-08T13:09:31;29.67;;;14.02;;
80926;SDS011;70385;44.538;18.532;2023-10-08T13:11:56;31.00;;;15.77;;
80926;SDS011;70385;44.538;18.532;2023-10-08T13:14:25;42.88;;;17.02;;
80926;SDS011;70385;44.538;18.532;2023-10-08T13:16:51;46.10;;;16.98;;
80926;SDS011;70385;44.538;18.532;2023-10-08T13:19:19;51.45;;;17.45;;
80926;SDS011;70385;44.538;18.532;2023-10-08T13:21:45;39.92;;;17.17;;
80926;SDS011;70385;44.538;18.532;2023-10-08T13:24:13;40.55;;;15.85;;
80926;SDS011;70385;44.538;18.532;2023-10-08T13:26:38;46.97;;;16.70;;
80926;SDS011;70385;44.538;18.532;2023-10-08T13:29:04;43.00;;;16.73;;
80926;SDS011;70385;44.538;18.532;2023-10-08T13:31:37;36.60;;;15.75;;
80926;SDS011;70385;44.538;18.532;2023-10-08T13:34:03;37.28;;;15.77;;
80926;SDS011;70385;44.538;18.532;2023-10-08T13:48:37;34.83;;;13.27;;
80926;SDS011;70385;44.538;18.532;2023-10-08T13:51:05;38.75;;;12.05;;
80926;SDS011;70385;44.538;18.532;2023-10-08T13:54:17;36.60;;;13.18;;
80926;SDS011;70385;44.538;18.532;2023-10-08T14:07:34;54.05;;;17.33;;
80926;SDS011;70385;44.538;18.532;2023-10-08T14:17:37;23.25;;;8.95;;
80926;SDS011;70385;44.538;18.532;2023-10-08T14:22:58;42.72;;;16.52;;
80926;SDS011;70385;44.538;18.532;2023-10-08T14:25:27;40.53;;;14.55;;
80926;SDS011;70385;44.538;18.532;2023-10-08T14:28:03;35.63;;;12.23;;
80926;SDS011;70385;44.538;18.532;2023-10-08T14:30:33;32.88;;;10.70;;
80926;SDS011;70385;44.538;18.532;2023-10-08T14:33:08;32.97;;;10.88;;
80926;SDS011;70385;44.538;18.532;2023-10-08T14:35:38;25.33;;;8.45;;
80926;SDS011;70385;44.538;18.532;2023-10-08T14:46:08;17.10;;;8.23;;
80926;SDS011;70385;44.538;18.532;2023-10-08T14:48:35;19.75;;;9.35;;
80926;SDS011;70385;44.538;18.532;2023-10-08T14:51:02;26.98;;;13.15;;
80926;SDS011;70385;44.538;18.532;2023-10-08T14:53:41;32.47;;;14.95;;
80926;SDS011;70385;44.538;18.532;2023-10-08T14:56:08;41.55;;;21.50;;
80926;SDS011;70385;44.538;18.532;2023-10-08T15:02:27;54.13;;;26.70;;
80926;SDS011;70385;44.538;18.532;2023-10-08T15:04:54;56.15;;;29.13;;
80926;SDS011;70385;44.538;18.532;2023-10-08T15:19:38;20.45;;;11.25;;
80926;SDS011;70385;44.538;18.532;2023-10-08T15:22:04;40.28;;;13.75;;
80926;SDS011;70385;44.538;18.532;2023-10-08T15:32:10;26.77;;;11.13;;
80926;SDS011;70385;44.538;18.532;2023-10-08T15:34:41;51.38;;;13.65;;
80926;SDS011;70385;44.538;18.532;2023-10-08T15:37:07;79.63;;;17.23;;
80926;SDS011;70385;44.538;18.532;2023-10-08T15:39:33;44.10;;;15.77;;
80926;SDS011;70385;44.538;18.532;2023-10-08T15:48:43;38.10;;;17.20;;
80926;SDS011;70385;44.538;18.532;2023-10-08T15:51:12;30.13;;;15.85;;
80926;SDS011;70385;44.538;18.532;2023-10-08T15:53:37;31.67;;;14.82;;
80926;SDS011;70385;44.538;18.532;2023-10-08T15:56:05;40.88;;;18.13;;
80926;SDS011;70385;44.538;18.532;2023-10-08T15:58:31;45.45;;;20.63;;
80926;SDS011;70385;44.538;18.532;2023-10-08T16:00:57;46.88;;;18.83;;
80926;SDS011;70385;44.538;18.532;2023-10-08T16:03:25;47.60;;;19.08;;
80926;SDS011;70385;44.538;18.532;2023-10-08T16:05:51;47.28;;;21.00;;
80926;SDS011;70385;44.538;18.532;2023-10-08T16:08:19;49.53;;;19.40;;
80926;SDS011;70385;44.538;18.532;2023-10-08T16:10:44;61.40;;;22.52;;
80926;SDS011;70385;44.538;18.532;2023-10-08T16:13:10;61.25;;;22.58;;
80926;SDS011;70385;44.538;18.532;2023-10-08T16:15:36;59.92;;;22.65;;
80926;SDS011;70385;44.538;18.532;2023-10-08T16:18:02;60.03;;;20.33;;
80926;SDS011;70385;44.538;18.532;2023-10-08T16:20:29;58.67;;;19.98;;